Peotone Weather
Station Historical Data
Daily Summary for May 16, 2018 Units:  Both    English   Metric
« Previous Day
Next Day »
Daily Weekly Monthly Yearly Custom
  High: Low: Average:
Temperature: 82.2 °F /  27.9 °C 49.6 °F /  9.8 °C 65.2 °F /  18.4 °C
Dew Point: 61.3 °F /  16.3 °C 44.2 °F /  6.8 °C 52.9 °F /  11.6 °C
Humidity: 90% 41% 67%
Wind Speed: 16.1mph /  25.9km/h - 4mph /  6.4km/h
Wind Gust: 17.2mph /  27.7km/h - -
Wind- - NE
Pressure: 30.03 in /  1016.8 hPa 29.93 in /  1013.4 hPa -
Precipitation: 0.00 in /  0 mm    
Historical Graphs
 
 
Tabular Data for May 16, 2018
Time Temperature Dew Point Pressure Wind Wind Speed Wind Gust Humidity Rainfall Rate (Hourly) solar Conditions
00:00 50.9 °F /  10.5 °C 44.6 °F /  7 °C 30.00in /  1015.8hPa North 4.6mph /  7.4km/h 6.9mph /  11.1km/h 79% 0.00in /  0mm 0.00 W/m2
00:03 50.9 °F /  10.5 °C 44.6 °F /  7 °C 30.00in /  1015.8hPa NNE 4.6mph /  7.4km/h 8.1mph /  13km/h 79% 0.00in /  0mm 0.00 W/m2
00:05 50.9 °F /  10.5 °C 44.3 °F /  6.8 °C 30.00in /  1015.8hPa NE 3.5mph /  5.6km/h 8.1mph /  13km/h 78% 0.00in /  0mm 0.00 W/m2
00:08 50.9 °F /  10.5 °C 44.3 °F /  6.8 °C 30.00in /  1015.8hPa NE 4.6mph /  7.4km/h 9.2mph /  14.8km/h 78% 0.00in /  0mm 0.00 W/m2
00:10 51.0 °F /  10.6 °C 44.4 °F /  6.9 °C 30.00in /  1015.8hPa NE 5.8mph /  9.3km/h 9.2mph /  14.8km/h 78% 0.00in /  0mm 0.00 W/m2
00:13 51.0 °F /  10.6 °C 44.4 °F /  6.9 °C 30.00in /  1015.8hPa NE 3.4mph /  5.5km/h 9.2mph /  14.8km/h 78% 0.00in /  0mm 0.00 W/m2
00:15 51.0 °F /  10.6 °C 44.4 °F /  6.9 °C 30.00in /  1015.8hPa NNE 3.5mph /  5.6km/h 9.2mph /  14.8km/h 78% 0.00in /  0mm 0.00 W/m2
00:18 51.0 °F /  10.6 °C 44.4 °F /  6.9 °C 30.00in /  1015.8hPa NNE 3.4mph /  5.5km/h 8.1mph /  13km/h 78% 0.00in /  0mm 0.00 W/m2
00:20 51.0 °F /  10.6 °C 44.4 °F /  6.9 °C 30.00in /  1015.8hPa NE 2.3mph /  3.7km/h 8.1mph /  13km/h 78% 0.00in /  0mm 0.00 W/m2
00:25 51.0 °F /  10.6 °C 44.4 °F /  6.9 °C 30.00in /  1015.8hPa NE 4.6mph /  7.4km/h 6.9mph /  11.1km/h 78% 0.00in /  0mm 0.00 W/m2
00:30 51.0 °F /  10.6 °C 44.4 °F /  6.9 °C 30.00in /  1015.8hPa NE 4.6mph /  7.4km/h 6.9mph /  11.1km/h 78% 0.00in /  0mm 0.00 W/m2
00:34 51.0 °F /  10.6 °C 44.4 °F /  6.9 °C 29.99in /  1015.5hPa NE 4.6mph /  7.4km/h 5.8mph /  9.3km/h 78% 0.00in /  0mm 0.00 W/m2
00:35 51.1 °F /  10.6 °C 44.5 °F /  6.9 °C 29.99in /  1015.5hPa NNE 5.8mph /  9.3km/h 5.8mph /  9.3km/h 78% 0.00in /  0mm 0.00 W/m2
00:40 51.1 °F /  10.6 °C 44.5 °F /  6.9 °C 29.99in /  1015.5hPa NNE 2.3mph /  3.7km/h 8.1mph /  13km/h 78% 0.00in /  0mm 0.00 W/m2
00:45 50.9 °F /  10.5 °C 44.3 °F /  6.8 °C 30.00in /  1015.8hPa NE 2.3mph /  3.7km/h 6.9mph /  11.1km/h 78% 0.00in /  0mm 0.00 W/m2
00:50 51.1 °F /  10.6 °C 44.5 °F /  6.9 °C 30.00in /  1015.8hPa NE 3.4mph /  5.5km/h 8.1mph /  13km/h 78% 0.00in /  0mm 0.00 W/m2
00:55 51.0 °F /  10.6 °C 44.4 °F /  6.9 °C 30.00in /  1015.8hPa NE 4.6mph /  7.4km/h 5.8mph /  9.3km/h 78% 0.00in /  0mm 0.00 W/m2
01:00 51.0 °F /  10.6 °C 44.4 °F /  6.9 °C 30.00in /  1015.8hPa NE 1.1mph /  1.8km/h 9.2mph /  14.8km/h 78% 0.00in /  0mm 0.00 W/m2
01:05 51.0 °F /  10.6 °C 44.4 °F /  6.9 °C 30.00in /  1015.8hPa NE 3.4mph /  5.5km/h 8.1mph /  13km/h 78% 0.00in /  0mm 0.00 W/m2
01:10 51.0 °F /  10.6 °C 44.4 °F /  6.9 °C 30.00in /  1015.8hPa NE 2.3mph /  3.7km/h 9.2mph /  14.8km/h 78% 0.00in /  0mm 0.00 W/m2
01:15 50.9 °F /  10.5 °C 44.3 °F /  6.8 °C 29.99in /  1015.5hPa NNE 3.4mph /  5.5km/h 6.9mph /  11.1km/h 78% 0.00in /  0mm 0.00 W/m2
01:20 50.7 °F /  10.4 °C 44.4 °F /  6.9 °C 30.00in /  1015.8hPa NNE 4.6mph /  7.4km/h 6.9mph /  11.1km/h 79% 0.00in /  0mm 0.00 W/m2
01:25 50.6 °F /  10.3 °C 44.3 °F /  6.8 °C 30.00in /  1015.8hPa NNE 1.1mph /  1.8km/h 5.8mph /  9.3km/h 79% 0.00in /  0mm 0.00 W/m2
01:30 50.6 °F /  10.3 °C 44.3 °F /  6.8 °C 30.00in /  1015.8hPa Calm   4.6mph /  7.4km/h 79% 0.00in /  0mm 0.00 W/m2
01:35 50.6 °F /  10.3 °C 44.3 °F /  6.8 °C 30.00in /  1015.8hPa NNE 1.1mph /  1.8km/h 4.6mph /  7.4km/h 79% 0.00in /  0mm 0.00 W/m2
01:40 50.5 °F /  10.3 °C 44.2 °F /  6.8 °C 30.00in /  1015.8hPa NNE 2.3mph /  3.7km/h 5.8mph /  9.3km/h 79% 0.00in /  0mm 0.00 W/m2
01:45 50.6 °F /  10.3 °C 44.3 °F /  6.8 °C 30.00in /  1015.8hPa NNE 1.1mph /  1.8km/h 4.6mph /  7.4km/h 79% 0.00in /  0mm 0.00 W/m2
01:50 50.6 °F /  10.3 °C 44.3 °F /  6.8 °C 30.00in /  1015.8hPa NE 3.4mph /  5.5km/h 6.9mph /  11.1km/h 79% 0.00in /  0mm 0.00 W/m2
01:55 50.5 °F /  10.3 °C 44.2 °F /  6.8 °C 30.00in /  1015.8hPa NNE 2.3mph /  3.7km/h 6.9mph /  11.1km/h 79% 0.00in /  0mm 0.00 W/m2
02:00 50.5 °F /  10.3 °C 44.2 °F /  6.8 °C 29.99in /  1015.5hPa NE 2.3mph /  3.7km/h 8.1mph /  13km/h 79% 0.00in /  0mm 0.00 W/m2
02:05 50.6 °F /  10.3 °C 44.3 °F /  6.8 °C 29.99in /  1015.5hPa NNE 1.1mph /  1.8km/h 6.9mph /  11.1km/h 79% 0.00in /  0mm 0.00 W/m2
02:10 50.8 °F /  10.4 °C 44.2 °F /  6.8 °C 29.99in /  1015.5hPa NE 1.1mph /  1.8km/h 5.8mph /  9.3km/h 78% 0.00in /  0mm 0.00 W/m2
02:15 50.7 °F /  10.4 °C 44.4 °F /  6.9 °C 29.99in /  1015.5hPa NE 6.9mph /  11.1km/h 6.9mph /  11.1km/h 79% 0.00in /  0mm 0.00 W/m2
02:20 50.8 °F /  10.4 °C 44.2 °F /  6.8 °C 29.99in /  1015.5hPa NE 5.8mph /  9.3km/h 8.1mph /  13km/h 78% 0.00in /  0mm 0.00 W/m2
02:23 50.8 °F /  10.4 °C 44.2 °F /  6.8 °C 29.99in /  1015.5hPa NE 1.1mph /  1.8km/h 6.9mph /  11.1km/h 78% 0.00in /  0mm 0.00 W/m2
02:25 50.8 °F /  10.4 °C 44.2 °F /  6.8 °C 29.99in /  1015.5hPa NE 3.5mph /  5.6km/h 8.1mph /  13km/h 78% 0.00in /  0mm 0.00 W/m2
02:28 50.8 °F /  10.4 °C 44.5 °F /  6.9 °C 29.99in /  1015.5hPa NE 4.6mph /  7.4km/h 9.2mph /  14.8km/h 79% 0.00in /  0mm 0.00 W/m2
02:30 50.8 °F /  10.4 °C 44.2 °F /  6.8 °C 29.99in /  1015.5hPa NE 1.1mph /  1.8km/h 9.2mph /  14.8km/h 78% 0.00in /  0mm 0.00 W/m2
02:33 50.9 °F /  10.5 °C 44.3 °F /  6.8 °C 29.99in /  1015.5hPa NE 3.4mph /  5.5km/h 6.9mph /  11.1km/h 78% 0.00in /  0mm 0.00 W/m2
02:35 50.9 °F /  10.5 °C 44.3 °F /  6.8 °C 29.99in /  1015.5hPa NE 3.5mph /  5.6km/h 6.9mph /  11.1km/h 78% 0.00in /  0mm 0.00 W/m2
02:38 50.9 °F /  10.5 °C 44.3 °F /  6.8 °C 29.99in /  1015.5hPa NNE 2.3mph /  3.7km/h 6.9mph /  11.1km/h 78% 0.00in /  0mm 0.00 W/m2
02:40 50.9 °F /  10.5 °C 44.3 °F /  6.8 °C 29.99in /  1015.5hPa NNE 2.3mph /  3.7km/h 6.9mph /  11.1km/h 78% 0.00in /  0mm 0.00 W/m2
02:44 50.8 °F /  10.4 °C 44.5 °F /  6.9 °C 29.99in /  1015.5hPa Calm   4.6mph /  7.4km/h 79% 0.00in /  0mm 0.00 W/m2
02:45 50.8 °F /  10.4 °C 44.5 °F /  6.9 °C 29.99in /  1015.5hPa NNE 2.3mph /  3.7km/h 5.8mph /  9.3km/h 79% 0.00in /  0mm 0.00 W/m2
02:49 50.6 °F /  10.3 °C 44.3 °F /  6.8 °C 29.99in /  1015.5hPa NNE 1.1mph /  1.8km/h 3.4mph /  5.5km/h 79% 0.00in /  0mm 0.00 W/m2
02:50 50.6 °F /  10.3 °C 44.3 °F /  6.8 °C 29.99in /  1015.5hPa NNE 6.9mph /  11.1km/h 6.9mph /  11.1km/h 79% 0.00in /  0mm 0.00 W/m2
02:54 50.6 °F /  10.3 °C 44.3 °F /  6.8 °C 29.99in /  1015.5hPa NE 3.4mph /  5.5km/h 6.9mph /  11.1km/h 79% 0.00in /  0mm 0.00 W/m2
02:55 50.7 °F /  10.4 °C 44.4 °F /  6.9 °C 29.98in /  1015.1hPa NE 3.5mph /  5.6km/h 6.9mph /  11.1km/h 79% 0.00in /  0mm 0.00 W/m2
02:59 51.0 °F /  10.6 °C 44.7 °F /  7.1 °C 29.99in /  1015.5hPa NNE 2.3mph /  3.7km/h 6.9mph /  11.1km/h 79% 0.00in /  0mm 0.00 W/m2
03:04 51.0 °F /  10.6 °C 44.7 °F /  7.1 °C 29.99in /  1015.5hPa NNE 2.3mph /  3.7km/h 2.3mph /  3.7km/h 79% 0.00in /  0mm 0.00 W/m2
03:09 50.7 °F /  10.4 °C 44.8 °F /  7.1 °C 29.98in /  1015.1hPa Calm   8.1mph /  13km/h 80% 0.00in /  0mm 0.00 W/m2
03:14 50.7 °F /  10.4 °C 44.8 °F /  7.1 °C 29.98in /  1015.1hPa NNE 1.1mph /  1.8km/h 6.9mph /  11.1km/h 80% 0.00in /  0mm 0.00 W/m2
03:19 50.8 °F /  10.4 °C 44.9 °F /  7.2 °C 29.98in /  1015.1hPa NNE 1.1mph /  1.8km/h 6.9mph /  11.1km/h 80% 0.00in /  0mm 0.00 W/m2
03:24 50.9 °F /  10.5 °C 45.0 °F /  7.2 °C 29.98in /  1015.1hPa NNE 3.4mph /  5.5km/h 5.8mph /  9.3km/h 80% 0.00in /  0mm 0.00 W/m2
03:29 50.6 °F /  10.3 °C 44.7 °F /  7.1 °C 29.99in /  1015.5hPa Calm   4.6mph /  7.4km/h 80% 0.00in /  0mm 0.00 W/m2
03:34 50.5 °F /  10.3 °C 44.9 °F /  7.2 °C 29.99in /  1015.5hPa NNE 4.6mph /  7.4km/h 5.8mph /  9.3km/h 81% 0.00in /  0mm 0.00 W/m2
03:39 50.4 °F /  10.2 °C 44.8 °F /  7.1 °C 29.98in /  1015.1hPa NNE 1.1mph /  1.8km/h 5.8mph /  9.3km/h 81% 0.00in /  0mm 0.00 W/m2
03:44 50.6 °F /  10.3 °C 45.0 °F /  7.2 °C 29.98in /  1015.1hPa NNE 1.1mph /  1.8km/h 6.9mph /  11.1km/h 81% 0.00in /  0mm 0.00 W/m2
03:50 50.8 °F /  10.4 °C 44.9 °F /  7.2 °C 29.99in /  1015.5hPa Calm   4.6mph /  7.4km/h 80% 0.00in /  0mm 0.00 W/m2
03:55 50.8 °F /  10.4 °C 45.2 °F /  7.3 °C 29.99in /  1015.5hPa NNE 3.4mph /  5.5km/h 5.8mph /  9.3km/h 81% 0.00in /  0mm 0.00 W/m2
04:00 51.0 °F /  10.6 °C 45.4 °F /  7.4 °C 29.99in /  1015.5hPa Calm   5.8mph /  9.3km/h 81% 0.00in /  0mm 0.00 W/m2
04:05 51.2 °F /  10.7 °C 45.6 °F /  7.6 °C 29.99in /  1015.5hPa NE 3.4mph /  5.5km/h 9.2mph /  14.8km/h 81% 0.00in /  0mm 0.00 W/m2
04:10 51.5 °F /  10.8 °C 45.5 °F /  7.5 °C 29.99in /  1015.5hPa Calm   6.9mph /  11.1km/h 80% 0.00in /  0mm 0.00 W/m2
04:15 51.5 °F /  10.8 °C 45.5 °F /  7.5 °C 29.99in /  1015.5hPa NE 3.4mph /  5.5km/h 6.9mph /  11.1km/h 80% 0.00in /  0mm 0.00 W/m2
04:20 51.1 °F /  10.6 °C 45.8 °F /  7.7 °C 29.99in /  1015.5hPa NE 3.4mph /  5.5km/h 8.1mph /  13km/h 82% 0.00in /  0mm 0.00 W/m2
04:25 51.1 °F /  10.6 °C 46.1 °F /  7.8 °C 29.99in /  1015.5hPa NE 1.1mph /  1.8km/h 5.8mph /  9.3km/h 83% 0.00in /  0mm 0.00 W/m2
04:30 51.2 °F /  10.7 °C 46.2 °F /  7.9 °C 29.99in /  1015.5hPa NE 2.3mph /  3.7km/h 8.1mph /  13km/h 83% 0.00in /  0mm 0.00 W/m2
04:35 51.2 °F /  10.7 °C 46.2 °F /  7.9 °C 29.99in /  1015.5hPa NNE 1.1mph /  1.8km/h 9.2mph /  14.8km/h 83% 0.00in /  0mm 0.00 W/m2
04:40 51.2 °F /  10.7 °C 46.5 °F /  8.1 °C 30.00in /  1015.8hPa Calm   5.8mph /  9.3km/h 84% 0.00in /  0mm 0.00 W/m2
04:45 50.9 °F /  10.5 °C 46.2 °F /  7.9 °C 29.99in /  1015.5hPa Calm   4.6mph /  7.4km/h 84% 0.00in /  0mm 0.00 W/m2
04:50 50.8 °F /  10.4 °C 46.8 °F /  8.2 °C 30.00in /  1015.8hPa Calm   1.1mph /  1.8km/h 86% 0.00in /  0mm 0.00 W/m2
04:55 50.6 °F /  10.3 °C 46.6 °F /  8.1 °C 30.00in /  1015.8hPa Calm     86% 0.00in /  0mm 0.00 W/m2
05:00 50.5 °F /  10.3 °C 46.8 °F /  8.2 °C 30.00in /  1015.8hPa Calm     87% 0.00in /  0mm 0.00 W/m2
05:06 50.4 °F /  10.2 °C 46.7 °F /  8.2 °C 30.00in /  1015.8hPa Calm     87% 0.00in /  0mm 0.00 W/m2
05:11 50.3 °F /  10.2 °C 46.6 °F /  8.1 °C 30.00in /  1015.8hPa NNE 1.1mph /  1.8km/h 3.4mph /  5.5km/h 87% 0.00in /  0mm 0.00 W/m2
05:16 50.2 °F /  10.1 °C 46.8 °F /  8.2 °C 30.00in /  1015.8hPa NNE 2.3mph /  3.7km/h 2.3mph /  3.7km/h 88% 0.00in /  0mm 0.00 W/m2
05:21 50.3 °F /  10.2 °C 46.9 °F /  8.3 °C 30.00in /  1015.8hPa Calm   2.3mph /  3.7km/h 88% 0.00in /  0mm 0.00 W/m2
05:26 50.3 °F /  10.2 °C 46.9 °F /  8.3 °C 30.00in /  1015.8hPa Calm   1.1mph /  1.8km/h 88% 0.00in /  0mm 0.00 W/m2
05:31 50.0 °F /  10 °C 46.6 °F /  8.1 °C 30.00in /  1015.8hPa Calm     88% 0.00in /  0mm 0.00 W/m2
05:36 49.8 °F /  9.9 °C 46.4 °F /  8 °C 30.00in /  1015.8hPa NNE 2.3mph /  3.7km/h 6.9mph /  11.1km/h 88% 0.00in /  0mm 0.00 W/m2
05:41 49.6 °F /  9.8 °C 46.5 °F /  8.1 °C 30.00in /  1015.8hPa NNE 3.4mph /  5.5km/h 3.4mph /  5.5km/h 89% 0.00in /  0mm 5.00 W/m2
05:46 49.6 °F /  9.8 °C 46.5 °F /  8.1 °C 30.01in /  1016.1hPa NNE 4.6mph /  7.4km/h 4.6mph /  7.4km/h 89% 0.00in /  0mm 7.00 W/m2
05:51 50.0 °F /  10 °C 46.9 °F /  8.3 °C 30.01in /  1016.1hPa NNE 1.1mph /  1.8km/h 3.4mph /  5.5km/h 89% 0.00in /  0mm 11.00 W/m2
05:56 50.3 °F /  10.2 °C 47.5 °F /  8.6 °C 30.01in /  1016.1hPa NNE 2.3mph /  3.7km/h 6.9mph /  11.1km/h 90% 0.00in /  0mm 14.00 W/m2
06:01 50.6 °F /  10.3 °C 47.5 °F /  8.6 °C 30.01in /  1016.1hPa NNE 3.4mph /  5.5km/h 4.6mph /  7.4km/h 89% 0.00in /  0mm 21.00 W/m2
06:06 50.7 °F /  10.4 °C 47.6 °F /  8.7 °C 30.01in /  1016.1hPa NNE 4.6mph /  7.4km/h 6.9mph /  11.1km/h 89% 0.00in /  0mm 23.00 W/m2
06:12 50.9 °F /  10.5 °C 48.1 °F /  8.9 °C 30.01in /  1016.1hPa NE 2.3mph /  3.7km/h 6.9mph /  11.1km/h 90% 0.00in /  0mm 30.00 W/m2
06:17 51.6 °F /  10.9 °C 48.8 °F /  9.3 °C 30.02in /  1016.5hPa NNE 1.1mph /  1.8km/h 8.1mph /  13km/h 90% 0.00in /  0mm 72.00 W/m2
06:22 51.9 °F /  11.1 °C 48.8 °F /  9.3 °C 30.02in /  1016.5hPa Calm   4.6mph /  7.4km/h 89% 0.00in /  0mm 46.00 W/m2
06:27 52.2 °F /  11.2 °C 49.4 °F /  9.7 °C 30.02in /  1016.5hPa North 3.4mph /  5.5km/h 5.8mph /  9.3km/h 90% 0.00in /  0mm 107.00 W/m2
06:32 52.5 °F /  11.4 °C 49.7 °F /  9.8 °C 30.02in /  1016.5hPa North 3.4mph /  5.5km/h 5.8mph /  9.3km/h 90% 0.00in /  0mm 128.00 W/m2
06:37 53.4 °F /  11.9 °C 50.2 °F /  10.1 °C 30.02in /  1016.5hPa NNE 3.4mph /  5.5km/h 5.8mph /  9.3km/h 89% 0.00in /  0mm 125.00 W/m2
06:42 54.2 °F /  12.3 °C 50.7 °F /  10.4 °C 30.02in /  1016.5hPa Calm   6.9mph /  11.1km/h 88% 0.00in /  0mm 156.00 W/m2
06:47 54.8 °F /  12.7 °C 51.0 °F /  10.6 °C 30.02in /  1016.5hPa Calm   8.1mph /  13km/h 87% 0.00in /  0mm 171.00 W/m2
06:52 55.4 °F /  13 °C 51.3 °F /  10.7 °C 30.02in /  1016.5hPa NE 2.3mph /  3.7km/h 8.1mph /  13km/h 86% 0.00in /  0mm 174.00 W/m2
06:57 56.0 °F /  13.3 °C 51.9 °F /  11.1 °C 30.02in /  1016.5hPa NE 1.1mph /  1.8km/h 5.8mph /  9.3km/h 86% 0.00in /  0mm 204.00 W/m2
07:02 56.5 °F /  13.6 °C 52.0 °F /  11.1 °C 30.02in /  1016.5hPa NE 4.6mph /  7.4km/h 10.3mph /  16.6km/h 85% 0.00in /  0mm 218.00 W/m2
07:07 56.9 °F /  13.8 °C 52.4 °F /  11.3 °C 30.02in /  1016.5hPa NNE 2.3mph /  3.7km/h 8.1mph /  13km/h 85% 0.00in /  0mm 234.00 W/m2
07:13 57.6 °F /  14.2 °C 52.8 °F /  11.6 °C 30.02in /  1016.5hPa NE 3.4mph /  5.5km/h 8.1mph /  13km/h 84% 0.00in /  0mm 232.00 W/m2
07:18 58.0 °F /  14.4 °C 52.9 °F /  11.6 °C 30.02in /  1016.5hPa NNE 6.9mph /  11.1km/h 9.2mph /  14.8km/h 83% 0.00in /  0mm 267.00 W/m2
07:23 58.7 °F /  14.8 °C 53.6 °F /  12 °C 30.02in /  1016.5hPa NE 6.9mph /  11.1km/h 6.9mph /  11.1km/h 83% 0.00in /  0mm 283.00 W/m2
07:28 59.2 °F /  15.1 °C 53.7 °F /  12.1 °C 30.02in /  1016.5hPa NE 2.3mph /  3.7km/h 8.1mph /  13km/h 82% 0.00in /  0mm 287.00 W/m2
07:33 59.6 °F /  15.3 °C 54.4 °F /  12.4 °C 30.02in /  1016.5hPa NE 8.1mph /  13km/h 9.2mph /  14.8km/h 83% 0.00in /  0mm 302.00 W/m2
07:38 60.4 °F /  15.8 °C 54.9 °F /  12.7 °C 30.02in /  1016.5hPa Calm   5.8mph /  9.3km/h 82% 0.00in /  0mm 329.00 W/m2
07:43 60.8 °F /  16 °C 55.3 °F /  12.9 °C 30.03in /  1016.8hPa NE 4.6mph /  7.4km/h 6.9mph /  11.1km/h 82% 0.00in /  0mm 348.00 W/m2
07:48 61.3 °F /  16.3 °C 55.4 °F /  13 °C 30.02in /  1016.5hPa NE 2.3mph /  3.7km/h 6.9mph /  11.1km/h 81% 0.00in /  0mm 373.00 W/m2
07:53 61.9 °F /  16.6 °C 55.7 °F /  13.2 °C 30.02in /  1016.5hPa NE 3.4mph /  5.5km/h 12.6mph /  20.3km/h 80% 0.00in /  0mm 387.00 W/m2
07:58 62.5 °F /  16.9 °C 56.2 °F /  13.4 °C 30.02in /  1016.5hPa NE 4.6mph /  7.4km/h 10.3mph /  16.6km/h 80% 0.00in /  0mm 264.00 W/m2
08:03 63.0 °F /  17.2 °C 56.7 °F /  13.7 °C 30.02in /  1016.5hPa NE 8.1mph /  13km/h 9.2mph /  14.8km/h 80% 0.00in /  0mm 431.00 W/m2
08:08 63.4 °F /  17.4 °C 57.1 °F /  13.9 °C 30.02in /  1016.5hPa NE 5.8mph /  9.3km/h 10.3mph /  16.6km/h 80% 0.00in /  0mm 432.00 W/m2
08:13 63.8 °F /  17.7 °C 57.2 °F /  14 °C 30.02in /  1016.5hPa NE 1.1mph /  1.8km/h 10.3mph /  16.6km/h 79% 0.00in /  0mm 446.00 W/m2
08:19 64.5 °F /  18.1 °C 57.8 °F /  14.3 °C 30.02in /  1016.5hPa NE 3.4mph /  5.5km/h 6.9mph /  11.1km/h 79% 0.00in /  0mm 452.00 W/m2
08:24 65.3 °F /  18.5 °C 58.6 °F /  14.8 °C 30.02in /  1016.5hPa ENE 1.1mph /  1.8km/h 8.1mph /  13km/h 79% 0.00in /  0mm 461.00 W/m2
08:29 65.8 °F /  18.8 °C 58.8 °F /  14.9 °C 30.02in /  1016.5hPa NNE 2.3mph /  3.7km/h 5.8mph /  9.3km/h 78% 0.00in /  0mm 506.00 W/m2
08:34 66.2 °F /  19 °C 58.0 °F /  14.4 °C 30.02in /  1016.5hPa NE 5.8mph /  9.3km/h 10.3mph /  16.6km/h 75% 0.00in /  0mm 517.00 W/m2
08:39 66.8 °F /  19.3 °C 59.7 °F /  15.4 °C 30.02in /  1016.5hPa NE 8.1mph /  13km/h 8.1mph /  13km/h 78% 0.00in /  0mm 541.00 W/m2
08:44 67.7 °F /  19.8 °C 59.1 °F /  15.1 °C 30.02in /  1016.5hPa ENE 4.6mph /  7.4km/h 12.6mph /  20.3km/h 74% 0.00in /  0mm 561.00 W/m2
08:49 68.0 °F /  20 °C 59.8 °F /  15.4 °C 30.02in /  1016.5hPa NE 5.8mph /  9.3km/h 6.9mph /  11.1km/h 75% 0.00in /  0mm 548.00 W/m2
08:54 68.1 °F /  20.1 °C 59.9 °F /  15.5 °C 30.02in /  1016.5hPa NE 3.4mph /  5.5km/h 10.3mph /  16.6km/h 75% 0.00in /  0mm 552.00 W/m2
08:59 68.4 °F /  20.2 °C 59.8 °F /  15.4 °C 30.02in /  1016.5hPa Calm   12.6mph /  20.3km/h 74% 0.00in /  0mm 555.00 W/m2
09:04 68.8 °F /  20.4 °C 60.2 °F /  15.7 °C 30.02in /  1016.5hPa NE 3.4mph /  5.5km/h 8.1mph /  13km/h 74% 0.00in /  0mm 561.00 W/m2
09:09 69.4 °F /  20.8 °C 60.4 °F /  15.8 °C 30.02in /  1016.5hPa ENE 5.8mph /  9.3km/h 10.3mph /  16.6km/h 73% 0.00in /  0mm 520.00 W/m2
09:14 69.5 °F /  20.8 °C 60.5 °F /  15.8 °C 30.01in /  1016.1hPa NE 2.3mph /  3.7km/h 11.5mph /  18.5km/h 73% 0.00in /  0mm 652.00 W/m2
09:20 70.2 °F /  21.2 °C 60.8 °F /  16 °C 30.01in /  1016.1hPa NE 3.4mph /  5.5km/h 9.2mph /  14.8km/h 72% 0.00in /  0mm 664.00 W/m2
09:25 70.7 °F /  21.5 °C 60.0 °F /  15.6 °C 30.01in /  1016.1hPa ENE 4.6mph /  7.4km/h 10.3mph /  16.6km/h 69% 0.00in /  0mm 679.00 W/m2
09:30 71.2 °F /  21.8 °C 60.1 °F /  15.6 °C 30.01in /  1016.1hPa ENE 10.3mph /  16.6km/h 10.3mph /  16.6km/h 68% 0.00in /  0mm 679.00 W/m2
09:35 71.8 °F /  22.1 °C 61.1 °F /  16.2 °C 30.01in /  1016.1hPa NE 5.8mph /  9.3km/h 11.5mph /  18.5km/h 69% 0.00in /  0mm 608.00 W/m2
09:40 72.0 °F /  22.2 °C 60.5 °F /  15.8 °C 30.01in /  1016.1hPa East 5.8mph /  9.3km/h 9.2mph /  14.8km/h 67% 0.00in /  0mm 694.00 W/m2
09:45 72.4 °F /  22.4 °C 60.4 °F /  15.8 °C 30.01in /  1016.1hPa East 8.1mph /  13km/h 10.3mph /  16.6km/h 66% 0.00in /  0mm 728.00 W/m2
09:50 71.9 °F /  22.2 °C 59.5 °F /  15.3 °C 30.01in /  1016.1hPa ENE 5.8mph /  9.3km/h 9.2mph /  14.8km/h 65% 0.00in /  0mm 740.00 W/m2
09:55 72.1 °F /  22.3 °C 59.7 °F /  15.4 °C 30.01in /  1016.1hPa ENE 5.8mph /  9.3km/h 12.6mph /  20.3km/h 65% 0.00in /  0mm 689.00 W/m2
10:00 72.3 °F /  22.4 °C 59.9 °F /  15.5 °C 30.01in /  1016.1hPa ENE 1.1mph /  1.8km/h 10.3mph /  16.6km/h 65% 0.00in /  0mm 761.00 W/m2
10:05 72.9 °F /  22.7 °C 60.0 °F /  15.6 °C 30.01in /  1016.1hPa ENE 5.8mph /  9.3km/h 10.3mph /  16.6km/h 64% 0.00in /  0mm 740.00 W/m2
10:10 72.5 °F /  22.5 °C 60.1 °F /  15.6 °C 30.01in /  1016.1hPa NE 6.9mph /  11.1km/h 13.8mph /  22.2km/h 65% 0.00in /  0mm 779.00 W/m2
10:15 72.9 °F /  22.7 °C 61.3 °F /  16.3 °C 30.01in /  1016.1hPa NE 5.8mph /  9.3km/h 9.2mph /  14.8km/h 67% 0.00in /  0mm 721.00 W/m2
10:20 73.2 °F /  22.9 °C 60.7 °F /  15.9 °C 30.01in /  1016.1hPa NE 4.6mph /  7.4km/h 13.8mph /  22.2km/h 65% 0.00in /  0mm 758.00 W/m2
10:25 73.2 °F /  22.9 °C 61.2 °F /  16.2 °C 30.01in /  1016.1hPa ENE 8.1mph /  13km/h 8.1mph /  13km/h 66% 0.00in /  0mm 777.00 W/m2
10:30 74.0 °F /  23.3 °C 61.1 °F /  16.2 °C 30.01in /  1016.1hPa North 4.6mph /  7.4km/h 8.1mph /  13km/h 64% 0.00in /  0mm 831.00 W/m2
10:35 73.9 °F /  23.3 °C 58.7 °F /  14.8 °C 30.01in /  1016.1hPa NNE 3.4mph /  5.5km/h 12.6mph /  20.3km/h 59% 0.00in /  0mm 835.00 W/m2
10:40 73.8 °F /  23.2 °C 59.5 °F /  15.3 °C 30.01in /  1016.1hPa NE 3.4mph /  5.5km/h 11.5mph /  18.5km/h 61% 0.00in /  0mm 659.00 W/m2
10:45 74.2 °F /  23.4 °C 59.4 °F /  15.2 °C 30.02in /  1016.5hPa NE 1.1mph /  1.8km/h 2.3mph /  3.7km/h 60% 0.00in /  0mm 796.00 W/m2
10:50 74.2 °F /  23.4 °C 58.5 °F /  14.7 °C 30.02in /  1016.5hPa NE 10.3mph /  16.6km/h 11.5mph /  18.5km/h 58% 0.00in /  0mm 851.00 W/m2
10:55 74.3 °F /  23.5 °C 58.6 °F /  14.8 °C 30.01in /  1016.1hPa NE 10.3mph /  16.6km/h 10.3mph /  16.6km/h 58% 0.00in /  0mm 874.00 W/m2
11:01 74.7 °F /  23.7 °C 58.0 °F /  14.4 °C 30.01in /  1016.1hPa NNW 2.3mph /  3.7km/h 8.1mph /  13km/h 56% 0.00in /  0mm 879.00 W/m2
11:06 75.1 °F /  23.9 °C 58.8 °F /  14.9 °C 30.01in /  1016.1hPa NE 2.3mph /  3.7km/h 5.8mph /  9.3km/h 57% 0.00in /  0mm 886.00 W/m2
11:11 75.4 °F /  24.1 °C 58.1 °F /  14.5 °C 30.01in /  1016.1hPa NNE 5.8mph /  9.3km/h 10.3mph /  16.6km/h 55% 0.00in /  0mm 896.00 W/m2
11:16 75.5 °F /  24.2 °C 58.7 °F /  14.8 °C 30.01in /  1016.1hPa ENE 11.5mph /  18.5km/h 11.5mph /  18.5km/h 56% 0.00in /  0mm 902.00 W/m2
11:21 75.2 °F /  24 °C 58.4 °F /  14.7 °C 30.01in /  1016.1hPa NE 5.8mph /  9.3km/h 9.2mph /  14.8km/h 56% 0.00in /  0mm 909.00 W/m2
11:26 76.1 °F /  24.5 °C 59.3 °F /  15.2 °C 30.01in /  1016.1hPa NE 11.5mph /  18.5km/h 11.5mph /  18.5km/h 56% 0.00in /  0mm 914.00 W/m2
11:31 75.4 °F /  24.1 °C 58.1 °F /  14.5 °C 30.01in /  1016.1hPa East 1.1mph /  1.8km/h 10.3mph /  16.6km/h 55% 0.00in /  0mm 923.00 W/m2
11:36 75.8 °F /  24.3 °C 58.5 °F /  14.7 °C 30.01in /  1016.1hPa Calm   3.4mph /  5.5km/h 55% 0.00in /  0mm 926.00 W/m2
11:41 76.1 °F /  24.5 °C 58.3 °F /  14.6 °C 30.01in /  1016.1hPa NE 16.1mph /  25.9km/h 16.1mph /  25.9km/h 54% 0.00in /  0mm 932.00 W/m2
11:46 76.7 °F /  24.8 °C 57.8 °F /  14.3 °C 30.00in /  1015.8hPa NE 11.5mph /  18.5km/h 11.5mph /  18.5km/h 52% 0.00in /  0mm 935.00 W/m2
11:51 77.0 °F /  25 °C 57.5 °F /  14.2 °C 30.01in /  1016.1hPa NE 9.2mph /  14.8km/h 12.6mph /  20.3km/h 51% 0.00in /  0mm 942.00 W/m2
11:56 76.4 °F /  24.7 °C 58.0 °F /  14.4 °C 30.00in /  1015.8hPa NE 1.1mph /  1.8km/h 10.3mph /  16.6km/h 53% 0.00in /  0mm 946.00 W/m2
12:02 77.4 °F /  25.2 °C 59.0 °F /  15 °C 30.00in /  1015.8hPa ENE 14.9mph /  24km/h 14.9mph /  24km/h 53% 0.00in /  0mm 953.00 W/m2
12:07 77.0 °F /  25 °C 58.6 °F /  14.8 °C 30.00in /  1015.8hPa NE 5.8mph /  9.3km/h 10.3mph /  16.6km/h 53% 0.00in /  0mm 954.00 W/m2
12:12 77.4 °F /  25.2 °C 60.5 °F /  15.8 °C 30.00in /  1015.8hPa ENE 10.3mph /  16.6km/h 11.5mph /  18.5km/h 56% 0.00in /  0mm 958.00 W/m2
12:17 77.4 °F /  25.2 °C 56.8 °F /  13.8 °C 29.99in /  1015.5hPa NE 10.3mph /  16.6km/h 14.9mph /  24km/h 49% 0.00in /  0mm 963.00 W/m2
12:22 77.5 °F /  25.3 °C 58.5 °F /  14.7 °C 29.99in /  1015.5hPa NE 12.6mph /  20.3km/h 13.8mph /  22.2km/h 52% 0.00in /  0mm 965.00 W/m2
12:27 77.1 °F /  25.1 °C 57.0 °F /  13.9 °C 29.99in /  1015.5hPa ENE 10.3mph /  16.6km/h 11.5mph /  18.5km/h 50% 0.00in /  0mm 963.00 W/m2
12:32 78.2 °F /  25.7 °C 59.2 °F /  15.1 °C 29.99in /  1015.5hPa NNE 5.8mph /  9.3km/h 12.6mph /  20.3km/h 52% 0.00in /  0mm 967.00 W/m2
12:37 78.5 °F /  25.8 °C 58.9 °F /  14.9 °C 29.99in /  1015.5hPa ENE 12.6mph /  20.3km/h 12.6mph /  20.3km/h 51% 0.00in /  0mm 969.00 W/m2
12:42 78.3 °F /  25.7 °C 59.2 °F /  15.1 °C 29.99in /  1015.5hPa East 5.8mph /  9.3km/h 9.2mph /  14.8km/h 52% 0.00in /  0mm 969.00 W/m2
12:47 79.4 °F /  26.3 °C 58.6 °F /  14.8 °C 29.98in /  1015.1hPa North 4.6mph /  7.4km/h 8.1mph /  13km/h 49% 0.00in /  0mm 970.00 W/m2
12:52 79.2 °F /  26.2 °C 59.5 °F /  15.3 °C 29.98in /  1015.1hPa NE 2.3mph /  3.7km/h 6.9mph /  11.1km/h 51% 0.00in /  0mm 972.00 W/m2
12:57 79.3 °F /  26.3 °C 57.9 °F /  14.4 °C 29.98in /  1015.1hPa ENE 4.6mph /  7.4km/h 14.9mph /  24km/h 48% 0.00in /  0mm 972.00 W/m2
13:02 78.6 °F /  25.9 °C 57.3 °F /  14.1 °C 29.98in /  1015.1hPa ENE 8.1mph /  13km/h 13.8mph /  22.2km/h 48% 0.00in /  0mm 970.00 W/m2
13:08 79.1 °F /  26.2 °C 58.3 °F /  14.6 °C 29.98in /  1015.1hPa NE 6.9mph /  11.1km/h 9.2mph /  14.8km/h 49% 0.00in /  0mm 969.00 W/m2
13:13 79.6 °F /  26.4 °C 58.8 °F /  14.9 °C 29.98in /  1015.1hPa NNE 1.1mph /  1.8km/h 10.3mph /  16.6km/h 49% 0.00in /  0mm 965.00 W/m2
13:18 79.7 °F /  26.5 °C 57.7 °F /  14.3 °C 29.98in /  1015.1hPa ENE 10.3mph /  16.6km/h 12.6mph /  20.3km/h 47% 0.00in /  0mm 967.00 W/m2
13:23 79.9 °F /  26.6 °C 56.7 °F /  13.7 °C 29.98in /  1015.1hPa North 5.8mph /  9.3km/h 12.6mph /  20.3km/h 45% 0.00in /  0mm 965.00 W/m2
13:28 79.7 °F /  26.5 °C 60.0 °F /  15.6 °C 29.98in /  1015.1hPa NE 11.5mph /  18.5km/h 16.1mph /  25.9km/h 51% 0.00in /  0mm 962.00 W/m2
13:33 79.8 °F /  26.6 °C 57.2 °F /  14 °C 29.98in /  1015.1hPa NE 12.6mph /  20.3km/h 12.6mph /  20.3km/h 46% 0.00in /  0mm 962.00 W/m2
13:38 79.6 °F /  26.4 °C 57.0 °F /  13.9 °C 29.97in /  1014.8hPa NE 6.9mph /  11.1km/h 12.6mph /  20.3km/h 46% 0.00in /  0mm 954.00 W/m2
13:43 79.3 °F /  26.3 °C 56.1 °F /  13.4 °C 29.97in /  1014.8hPa NNE 8.1mph /  13km/h 14.9mph /  24km/h 45% 0.00in /  0mm 951.00 W/m2
13:48 79.9 °F /  26.6 °C 58.5 °F /  14.7 °C 29.97in /  1014.8hPa NNE 6.9mph /  11.1km/h 6.9mph /  11.1km/h 48% 0.00in /  0mm 947.00 W/m2
13:53 80.6 °F /  27 °C 57.3 °F /  14.1 °C 29.96in /  1014.4hPa North 5.8mph /  9.3km/h 11.5mph /  18.5km/h 45% 0.00in /  0mm 939.00 W/m2
13:58 80.5 °F /  26.9 °C 58.4 °F /  14.7 °C 29.96in /  1014.4hPa North 12.6mph /  20.3km/h 12.6mph /  20.3km/h 47% 0.00in /  0mm 940.00 W/m2
14:04 80.3 °F /  26.8 °C 57.0 °F /  13.9 °C 29.96in /  1014.4hPa ENE 2.3mph /  3.7km/h 12.6mph /  20.3km/h 45% 0.00in /  0mm 933.00 W/m2
14:09 80.1 °F /  26.7 °C 55.0 °F /  12.8 °C 29.96in /  1014.4hPa ENE 9.2mph /  14.8km/h 11.5mph /  18.5km/h 42% 0.00in /  0mm 926.00 W/m2
14:14 79.8 °F /  26.6 °C 54.0 °F /  12.2 °C 29.96in /  1014.4hPa NE 10.3mph /  16.6km/h 17.2mph /  27.7km/h 41% 0.00in /  0mm 921.00 W/m2
14:19 79.8 °F /  26.6 °C 56.0 °F /  13.3 °C 29.96in /  1014.4hPa NE 1.1mph /  1.8km/h 16.1mph /  25.9km/h 44% 0.00in /  0mm 912.00 W/m2
14:24 80.2 °F /  26.8 °C 57.6 °F /  14.2 °C 29.96in /  1014.4hPa NNE 4.6mph /  7.4km/h 9.2mph /  14.8km/h 46% 0.00in /  0mm 902.00 W/m2
14:29 80.3 °F /  26.8 °C 58.2 °F /  14.6 °C 29.96in /  1014.4hPa NNE 4.6mph /  7.4km/h 16.1mph /  25.9km/h 47% 0.00in /  0mm 896.00 W/m2
14:34 80.6 °F /  27 °C 55.4 °F /  13 °C 29.96in /  1014.4hPa NE 6.9mph /  11.1km/h 11.5mph /  18.5km/h 42% 0.00in /  0mm 886.00 W/m2
14:39 80.4 °F /  26.9 °C 58.9 °F /  14.9 °C 29.96in /  1014.4hPa North 5.8mph /  9.3km/h 13.8mph /  22.2km/h 48% 0.00in /  0mm 875.00 W/m2
14:44 81.2 °F /  27.3 °C 56.0 °F /  13.3 °C 29.95in /  1014.1hPa NNE 9.2mph /  14.8km/h 13.8mph /  22.2km/h 42% 0.00in /  0mm 867.00 W/m2
14:49 81.5 °F /  27.5 °C 58.8 °F /  14.9 °C 29.95in /  1014.1hPa ENE 2.3mph /  3.7km/h 10.3mph /  16.6km/h 46% 0.00in /  0mm 860.00 W/m2
14:54 82.2 °F /  27.9 °C 59.4 °F /  15.2 °C 29.96in /  1014.4hPa NE 2.3mph /  3.7km/h 12.6mph /  20.3km/h 46% 0.00in /  0mm 847.00 W/m2
14:59 81.7 °F /  27.6 °C 57.7 °F /  14.3 °C 29.95in /  1014.1hPa NNE 5.8mph /  9.3km/h 13.8mph /  22.2km/h 44% 0.00in /  0mm 844.00 W/m2
15:04 81.3 °F /  27.4 °C 58.0 °F /  14.4 °C 29.95in /  1014.1hPa NE 8.1mph /  13km/h 13.8mph /  22.2km/h 45% 0.00in /  0mm 826.00 W/m2
15:10 80.4 °F /  26.9 °C 57.8 °F /  14.3 °C 29.95in /  1014.1hPa NE 6.9mph /  11.1km/h 12.6mph /  20.3km/h 46% 0.00in /  0mm 814.00 W/m2
15:15 81.0 °F /  27.2 °C 58.3 °F /  14.6 °C 29.95in /  1014.1hPa NNE 8.1mph /  13km/h 13.8mph /  22.2km/h 46% 0.00in /  0mm 809.00 W/m2
15:20 80.7 °F /  27.1 °C 57.4 °F /  14.1 °C 29.95in /  1014.1hPa NE 5.8mph /  9.3km/h 12.6mph /  20.3km/h 45% 0.00in /  0mm 796.00 W/m2
15:25 80.8 °F /  27.1 °C 57.5 °F /  14.2 °C 29.95in /  1014.1hPa NNE 6.9mph /  11.1km/h 13.8mph /  22.2km/h 45% 0.00in /  0mm 775.00 W/m2
15:30 80.9 °F /  27.2 °C 58.2 °F /  14.6 °C 29.94in /  1013.8hPa ENE 8.1mph /  13km/h 14.9mph /  24km/h 46% 0.00in /  0mm 777.00 W/m2
15:35 81.4 °F /  27.4 °C 58.0 °F /  14.4 °C 29.95in /  1014.1hPa NE 6.9mph /  11.1km/h 11.5mph /  18.5km/h 45% 0.00in /  0mm 759.00 W/m2
15:38 81.1 °F /  27.3 °C 58.4 °F /  14.7 °C 29.94in /  1013.8hPa NNE 4.6mph /  7.4km/h 11.5mph /  18.5km/h 46% 0.00in /  0mm 754.00 W/m2
15:43 81.4 °F /  27.4 °C 58.7 °F /  14.8 °C 29.95in /  1014.1hPa NNE 2.3mph /  3.7km/h 12.6mph /  20.3km/h 46% 0.00in /  0mm 742.00 W/m2
15:48 81.3 °F /  27.4 °C 58.6 °F /  14.8 °C 29.95in /  1014.1hPa NE 11.5mph /  18.5km/h 13.8mph /  22.2km/h 46% 0.00in /  0mm 728.00 W/m2
15:53 80.7 °F /  27.1 °C 55.5 °F /  13.1 °C 29.95in /  1014.1hPa ENE 8.1mph /  13km/h 14.9mph /  24km/h 42% 0.00in /  0mm 712.00 W/m2
15:58 81.1 °F /  27.3 °C 60.7 °F /  15.9 °C 29.95in /  1014.1hPa NE 3.4mph /  5.5km/h 11.5mph /  18.5km/h 50% 0.00in /  0mm 703.00 W/m2
16:03 81.3 °F /  27.4 °C 58.0 °F /  14.4 °C 29.95in /  1014.1hPa ENE 4.6mph /  7.4km/h 8.1mph /  13km/h 45% 0.00in /  0mm 682.00 W/m2
16:08 80.5 °F /  26.9 °C 57.2 °F /  14 °C 29.94in /  1013.8hPa NE 3.4mph /  5.5km/h 12.6mph /  20.3km/h 45% 0.00in /  0mm 670.00 W/m2
16:13 80.6 °F /  27 °C 59.1 °F /  15.1 °C 29.95in /  1014.1hPa NE 2.3mph /  3.7km/h 9.2mph /  14.8km/h 48% 0.00in /  0mm 659.00 W/m2
16:18 80.9 °F /  27.2 °C 58.2 °F /  14.6 °C 29.94in /  1013.8hPa NE 9.2mph /  14.8km/h 11.5mph /  18.5km/h 46% 0.00in /  0mm 650.00 W/m2
16:24 80.9 °F /  27.2 °C 58.2 °F /  14.6 °C 29.94in /  1013.8hPa NE 1.1mph /  1.8km/h 11.5mph /  18.5km/h 46% 0.00in /  0mm 631.00 W/m2
16:29 80.3 °F /  26.8 °C 57.7 °F /  14.3 °C 29.95in /  1014.1hPa East 10.3mph /  16.6km/h 12.6mph /  20.3km/h 46% 0.00in /  0mm 621.00 W/m2
16:34 79.7 °F /  26.5 °C 55.9 °F /  13.3 °C 29.95in /  1014.1hPa NE 6.9mph /  11.1km/h 13.8mph /  22.2km/h 44% 0.00in /  0mm 605.00 W/m2
16:39 80.2 °F /  26.8 °C 57.0 °F /  13.9 °C 29.95in /  1014.1hPa North 3.4mph /  5.5km/h 13.8mph /  22.2km/h 45% 0.00in /  0mm 594.00 W/m2
16:44 79.9 °F /  26.6 °C 57.3 °F /  14.1 °C 29.95in /  1014.1hPa NNE 6.9mph /  11.1km/h 13.8mph /  22.2km/h 46% 0.00in /  0mm 578.00 W/m2
16:49 80.7 °F /  27.1 °C 58.0 °F /  14.4 °C 29.95in /  1014.1hPa NE 3.4mph /  5.5km/h 4.6mph /  7.4km/h 46% 0.00in /  0mm 561.00 W/m2
16:54 80.6 °F /  27 °C 58.5 °F /  14.7 °C 29.95in /  1014.1hPa NNW 6.9mph /  11.1km/h 11.5mph /  18.5km/h 47% 0.00in /  0mm 547.00 W/m2
16:59 80.3 °F /  26.8 °C 57.7 °F /  14.3 °C 29.95in /  1014.1hPa NE 2.3mph /  3.7km/h 13.8mph /  22.2km/h 46% 0.00in /  0mm 531.00 W/m2
17:04 79.8 °F /  26.6 °C 57.2 °F /  14 °C 29.95in /  1014.1hPa NNE 4.6mph /  7.4km/h 16.1mph /  25.9km/h 46% 0.00in /  0mm 513.00 W/m2
17:09 79.7 °F /  26.5 °C 57.1 °F /  13.9 °C 29.95in /  1014.1hPa NE 3.4mph /  5.5km/h 13.8mph /  22.2km/h 46% 0.00in /  0mm 499.00 W/m2
17:14 80.0 °F /  26.7 °C 56.8 °F /  13.8 °C 29.94in /  1013.8hPa North 6.9mph /  11.1km/h 11.5mph /  18.5km/h 45% 0.00in /  0mm 483.00 W/m2
17:19 79.2 °F /  26.2 °C 56.0 °F /  13.3 °C 29.94in /  1013.8hPa NE 1.1mph /  1.8km/h 12.6mph /  20.3km/h 45% 0.00in /  0mm 471.00 W/m2
17:24 79.2 °F /  26.2 °C 56.0 °F /  13.3 °C 29.94in /  1013.8hPa North 2.3mph /  3.7km/h 8.1mph /  13km/h 45% 0.00in /  0mm 455.00 W/m2
17:30 79.1 °F /  26.2 °C 55.3 °F /  12.9 °C 29.94in /  1013.8hPa Calm   12.6mph /  20.3km/h 44% 0.00in /  0mm 441.00 W/m2
17:35 78.8 °F /  26 °C 56.3 °F /  13.5 °C 29.94in /  1013.8hPa ENE 4.6mph /  7.4km/h 11.5mph /  18.5km/h 46% 0.00in /  0mm 424.00 W/m2
17:40 79.2 °F /  26.2 °C 56.7 °F /  13.7 °C 29.94in /  1013.8hPa NNE 1.1mph /  1.8km/h 12.6mph /  20.3km/h 46% 0.00in /  0mm 406.00 W/m2
17:45 79.1 °F /  26.2 °C 57.2 °F /  14 °C 29.94in /  1013.8hPa NNE 10.3mph /  16.6km/h 12.6mph /  20.3km/h 47% 0.00in /  0mm 390.00 W/m2
17:50 78.5 °F /  25.8 °C 54.8 °F /  12.7 °C 29.94in /  1013.8hPa NNE 5.8mph /  9.3km/h 14.9mph /  24km/h 44% 0.00in /  0mm 376.00 W/m2
17:55 78.4 °F /  25.8 °C 55.9 °F /  13.3 °C 29.94in /  1013.8hPa ENE 3.4mph /  5.5km/h 16.1mph /  25.9km/h 46% 0.00in /  0mm 359.00 W/m2
18:00 78.3 °F /  25.7 °C 55.2 °F /  12.9 °C 29.94in /  1013.8hPa NE 6.9mph /  11.1km/h 11.5mph /  18.5km/h 45% 0.00in /  0mm 341.00 W/m2
18:05 77.9 °F /  25.5 °C 54.3 °F /  12.4 °C 29.94in /  1013.8hPa NE 5.8mph /  9.3km/h 11.5mph /  18.5km/h 44% 0.00in /  0mm 323.00 W/m2
18:10 77.7 °F /  25.4 °C 55.3 °F /  12.9 °C 29.94in /  1013.8hPa ENE 5.8mph /  9.3km/h 10.3mph /  16.6km/h 46% 0.00in /  0mm 141.00 W/m2
18:15 77.6 °F /  25.3 °C 55.2 °F /  12.9 °C 29.94in /  1013.8hPa ENE 2.3mph /  3.7km/h 3.4mph /  5.5km/h 46% 0.00in /  0mm 288.00 W/m2
18:20 77.5 °F /  25.3 °C 55.7 °F /  13.2 °C 29.94in /  1013.8hPa NNE 6.9mph /  11.1km/h 6.9mph /  11.1km/h 47% 0.00in /  0mm 95.00 W/m2
18:25 77.2 °F /  25.1 °C 56.0 °F /  13.3 °C 29.93in /  1013.4hPa NNE 5.8mph /  9.3km/h 5.8mph /  9.3km/h 48% 0.00in /  0mm 204.00 W/m2
18:31 76.7 °F /  24.8 °C 55.5 °F /  13.1 °C 29.93in /  1013.4hPa NE 2.3mph /  3.7km/h 2.3mph /  3.7km/h 48% 0.00in /  0mm 237.00 W/m2
18:36 76.4 °F /  24.7 °C 55.3 °F /  12.9 °C 29.93in /  1013.4hPa ENE 9.2mph /  14.8km/h 10.3mph /  16.6km/h 48% 0.00in /  0mm 183.00 W/m2
18:41 75.7 °F /  24.3 °C 55.2 °F /  12.9 °C 29.94in /  1013.8hPa NE 4.6mph /  7.4km/h 4.6mph /  7.4km/h 49% 0.00in /  0mm 86.00 W/m2
18:46 75.3 °F /  24.1 °C 54.8 °F /  12.7 °C 29.94in /  1013.8hPa NE 4.6mph /  7.4km/h 5.8mph /  9.3km/h 49% 0.00in /  0mm 54.00 W/m2
18:51 74.9 °F /  23.8 °C 55.0 °F /  12.8 °C 29.94in /  1013.8hPa NE 6.9mph /  11.1km/h 9.2mph /  14.8km/h 50% 0.00in /  0mm 40.00 W/m2
18:56 74.4 °F /  23.6 °C 55.7 °F /  13.2 °C 29.94in /  1013.8hPa NNE 4.6mph /  7.4km/h 4.6mph /  7.4km/h 52% 0.00in /  0mm 39.00 W/m2
19:01 74.0 °F /  23.3 °C 54.7 °F /  12.6 °C 29.94in /  1013.8hPa NE 5.8mph /  9.3km/h 9.2mph /  14.8km/h 51% 0.00in /  0mm 37.00 W/m2
19:06 73.8 °F /  23.2 °C 54.6 °F /  12.6 °C 29.94in /  1013.8hPa NE 3.4mph /  5.5km/h 6.9mph /  11.1km/h 51% 0.00in /  0mm 33.00 W/m2
19:11 73.3 °F /  22.9 °C 54.6 °F /  12.6 °C 29.94in /  1013.8hPa Calm   6.9mph /  11.1km/h 52% 0.00in /  0mm 32.00 W/m2
19:16 73.0 °F /  22.8 °C 54.9 °F /  12.7 °C 29.94in /  1013.8hPa NNE 1.1mph /  1.8km/h 6.9mph /  11.1km/h 53% 0.00in /  0mm 30.00 W/m2
19:21 72.9 °F /  22.7 °C 55.3 °F /  12.9 °C 29.95in /  1014.1hPa NNE 2.3mph /  3.7km/h 5.8mph /  9.3km/h 54% 0.00in /  0mm 28.00 W/m2
19:26 72.4 °F /  22.4 °C 54.8 °F /  12.7 °C 29.95in /  1014.1hPa Calm   5.8mph /  9.3km/h 54% 0.00in /  0mm 26.00 W/m2
19:32 72.0 °F /  22.2 °C 54.5 °F /  12.5 °C 29.95in /  1014.1hPa NE 3.4mph /  5.5km/h 8.1mph /  13km/h 54% 0.00in /  0mm 23.00 W/m2
19:37 71.7 °F /  22.1 °C 54.2 °F /  12.3 °C 29.95in /  1014.1hPa NE 4.6mph /  7.4km/h 4.6mph /  7.4km/h 54% 0.00in /  0mm 19.00 W/m2
19:42 71.3 °F /  21.8 °C 54.3 °F /  12.4 °C 29.95in /  1014.1hPa NNE 6.9mph /  11.1km/h 6.9mph /  11.1km/h 55% 0.00in /  0mm 16.00 W/m2
19:47 70.7 °F /  21.5 °C 53.8 °F /  12.1 °C 29.95in /  1014.1hPa NE 2.3mph /  3.7km/h 6.9mph /  11.1km/h 55% 0.00in /  0mm 14.00 W/m2
19:52 70.4 °F /  21.3 °C 53.5 °F /  11.9 °C 29.95in /  1014.1hPa NE 2.3mph /  3.7km/h 4.6mph /  7.4km/h 55% 0.00in /  0mm 11.00 W/m2
19:57 69.6 °F /  20.9 °C 53.7 °F /  12.1 °C 29.95in /  1014.1hPa NE 1.1mph /  1.8km/h 8.1mph /  13km/h 57% 0.00in /  0mm 7.00 W/m2
20:02 69.3 °F /  20.7 °C 53.9 °F /  12.2 °C 29.95in /  1014.1hPa NE 1.1mph /  1.8km/h 4.6mph /  7.4km/h 58% 0.00in /  0mm 5.00 W/m2
20:07 68.9 °F /  20.5 °C 53.5 °F /  11.9 °C 29.96in /  1014.4hPa NE 2.3mph /  3.7km/h 4.6mph /  7.4km/h 58% 0.00in /  0mm 0.00 W/m2
20:12 68.4 °F /  20.2 °C 53.1 °F /  11.7 °C 29.96in /  1014.4hPa NNE 2.3mph /  3.7km/h 8.1mph /  13km/h 58% 0.00in /  0mm 0.00 W/m2
20:17 68.1 °F /  20.1 °C 52.8 °F /  11.6 °C 29.96in /  1014.4hPa NE 3.4mph /  5.5km/h 9.2mph /  14.8km/h 58% 0.00in /  0mm 0.00 W/m2
20:22 67.7 °F /  19.8 °C 52.9 °F /  11.6 °C 29.96in /  1014.4hPa NE 4.6mph /  7.4km/h 4.6mph /  7.4km/h 59% 0.00in /  0mm 0.00 W/m2
20:27 67.2 °F /  19.6 °C 52.4 °F /  11.3 °C 29.96in /  1014.4hPa NE 2.3mph /  3.7km/h 6.9mph /  11.1km/h 59% 0.00in /  0mm 0.00 W/m2
20:32 67.1 °F /  19.5 °C 52.8 °F /  11.6 °C 29.96in /  1014.4hPa NE 4.6mph /  7.4km/h 5.8mph /  9.3km/h 60% 0.00in /  0mm 0.00 W/m2
20:38 66.6 °F /  19.2 °C 52.8 °F /  11.6 °C 29.96in /  1014.4hPa NE 4.6mph /  7.4km/h 6.9mph /  11.1km/h 61% 0.00in /  0mm 0.00 W/m2
20:43 66.3 °F /  19.1 °C 52.5 °F /  11.4 °C 29.96in /  1014.4hPa Calm   3.4mph /  5.5km/h 61% 0.00in /  0mm 0.00 W/m2
20:48 65.7 °F /  18.7 °C 52.3 °F /  11.3 °C 29.97in /  1014.8hPa NE 1.1mph /  1.8km/h 3.4mph /  5.5km/h 62% 0.00in /  0mm 0.00 W/m2
20:53 65.2 °F /  18.4 °C 52.3 °F /  11.3 °C 29.97in /  1014.8hPa NE 3.4mph /  5.5km/h 4.6mph /  7.4km/h 63% 0.00in /  0mm 0.00 W/m2
20:58 64.6 °F /  18.1 °C 52.2 °F /  11.2 °C 29.97in /  1014.8hPa NE 3.4mph /  5.5km/h 5.8mph /  9.3km/h 64% 0.00in /  0mm 0.00 W/m2
21:03 64.3 °F /  17.9 °C 52.3 °F /  11.3 °C 29.97in /  1014.8hPa NE 1.1mph /  1.8km/h 3.4mph /  5.5km/h 65% 0.00in /  0mm 0.00 W/m2
21:08 63.9 °F /  17.7 °C 52.3 °F /  11.3 °C 29.97in /  1014.8hPa Calm   2.3mph /  3.7km/h 66% 0.00in /  0mm 0.00 W/m2
21:13 63.3 °F /  17.4 °C 52.6 °F /  11.4 °C 29.98in /  1015.1hPa NE 2.3mph /  3.7km/h 3.4mph /  5.5km/h 68% 0.00in /  0mm 0.00 W/m2
21:18 63.2 °F /  17.3 °C 52.5 °F /  11.4 °C 29.98in /  1015.1hPa NE 2.3mph /  3.7km/h 4.6mph /  7.4km/h 68% 0.00in /  0mm 0.00 W/m2
21:23 62.9 °F /  17.2 °C 52.6 °F /  11.4 °C 29.97in /  1014.8hPa NE 2.3mph /  3.7km/h 5.8mph /  9.3km/h 69% 0.00in /  0mm 0.00 W/m2
21:28 62.9 °F /  17.2 °C 52.6 °F /  11.4 °C 29.98in /  1015.1hPa Calm   4.6mph /  7.4km/h 69% 0.00in /  0mm 0.00 W/m2
21:33 62.6 °F /  17 °C 52.7 °F /  11.5 °C 29.98in /  1015.1hPa NE 1.1mph /  1.8km/h 5.8mph /  9.3km/h 70% 0.00in /  0mm 0.00 W/m2
21:39 62.3 °F /  16.8 °C 53.2 °F /  11.8 °C 29.98in /  1015.1hPa NE 1.1mph /  1.8km/h 5.8mph /  9.3km/h 72% 0.00in /  0mm 0.00 W/m2
21:44 62.2 °F /  16.8 °C 53.1 °F /  11.7 °C 29.98in /  1015.1hPa NE 4.6mph /  7.4km/h 5.8mph /  9.3km/h 72% 0.00in /  0mm 0.00 W/m2
21:49 62.3 °F /  16.8 °C 53.9 °F /  12.2 °C 29.98in /  1015.1hPa NE 5.8mph /  9.3km/h 5.8mph /  9.3km/h 74% 0.00in /  0mm 0.00 W/m2
21:54 61.9 °F /  16.6 °C 53.9 °F /  12.2 °C 29.98in /  1015.1hPa NE 4.6mph /  7.4km/h 5.8mph /  9.3km/h 75% 0.00in /  0mm 0.00 W/m2
21:59 61.8 °F /  16.6 °C 54.2 °F /  12.3 °C 29.98in /  1015.1hPa NE 3.4mph /  5.5km/h 5.8mph /  9.3km/h 76% 0.00in /  0mm 0.00 W/m2
22:04 61.7 °F /  16.5 °C 54.1 °F /  12.3 °C 29.98in /  1015.1hPa NE 1.1mph /  1.8km/h 8.1mph /  13km/h 76% 0.00in /  0mm 0.00 W/m2
22:09 61.6 °F /  16.4 °C 54.0 °F /  12.2 °C 29.98in /  1015.1hPa NE 2.3mph /  3.7km/h 5.8mph /  9.3km/h 76% 0.00in /  0mm 0.00 W/m2
22:14 61.2 °F /  16.2 °C 53.9 °F /  12.2 °C 29.98in /  1015.1hPa NE 1.1mph /  1.8km/h 4.6mph /  7.4km/h 77% 0.00in /  0mm 0.00 W/m2
22:19 61.1 °F /  16.2 °C 54.2 °F /  12.3 °C 29.98in /  1015.1hPa NE 1.1mph /  1.8km/h 5.8mph /  9.3km/h 78% 0.00in /  0mm 0.00 W/m2
22:24 61.2 °F /  16.2 °C 53.9 °F /  12.2 °C 29.98in /  1015.1hPa Calm   5.8mph /  9.3km/h 77% 0.00in /  0mm 0.00 W/m2
22:29 61.0 °F /  16.1 °C 54.1 °F /  12.3 °C 29.98in /  1015.1hPa NE 1.1mph /  1.8km/h 4.6mph /  7.4km/h 78% 0.00in /  0mm 0.00 W/m2
22:34 60.7 °F /  15.9 °C 53.8 °F /  12.1 °C 29.99in /  1015.5hPa NE 3.4mph /  5.5km/h 5.8mph /  9.3km/h 78% 0.00in /  0mm 0.00 W/m2
22:40 60.5 °F /  15.8 °C 54.0 °F /  12.2 °C 29.99in /  1015.5hPa NE 2.3mph /  3.7km/h 5.8mph /  9.3km/h 79% 0.00in /  0mm 0.00 W/m2
22:45 60.1 °F /  15.6 °C 53.6 °F /  12 °C 29.99in /  1015.5hPa NE 2.3mph /  3.7km/h 4.6mph /  7.4km/h 79% 0.00in /  0mm 0.00 W/m2
22:50 59.8 °F /  15.4 °C 53.6 °F /  12 °C 29.99in /  1015.5hPa NE 2.3mph /  3.7km/h 5.8mph /  9.3km/h 80% 0.00in /  0mm 0.00 W/m2
22:55 59.6 °F /  15.3 °C 53.4 °F /  11.9 °C 29.99in /  1015.5hPa NE 2.3mph /  3.7km/h 5.8mph /  9.3km/h 80% 0.00in /  0mm 0.00 W/m2
23:00 59.8 °F /  15.4 °C 53.6 °F /  12 °C 29.99in /  1015.5hPa NE 3.4mph /  5.5km/h 5.8mph /  9.3km/h 80% 0.00in /  0mm 0.00 W/m2
23:05 60.1 °F /  15.6 °C 53.9 °F /  12.2 °C 29.99in /  1015.5hPa Calm   4.6mph /  7.4km/h 80% 0.00in /  0mm 0.00 W/m2
23:10 59.8 °F /  15.4 °C 53.6 °F /  12 °C 29.99in /  1015.5hPa NE 2.3mph /  3.7km/h 5.8mph /  9.3km/h 80% 0.00in /  0mm 0.00 W/m2
23:15 59.7 °F /  15.4 °C 53.5 °F /  11.9 °C 29.99in /  1015.5hPa NE 1.1mph /  1.8km/h 5.8mph /  9.3km/h 80% 0.00in /  0mm 0.00 W/m2
23:20 59.7 °F /  15.4 °C 53.5 °F /  11.9 °C 29.99in /  1015.5hPa Calm   3.4mph /  5.5km/h 80% 0.00in /  0mm 0.00 W/m2
23:25 59.3 °F /  15.2 °C 53.1 °F /  11.7 °C 29.99in /  1015.5hPa NE 2.3mph /  3.7km/h 3.4mph /  5.5km/h 80% 0.00in /  0mm 0.00 W/m2
23:30 59.1 °F /  15.1 °C 53.3 °F /  11.8 °C 29.99in /  1015.5hPa NE 5.8mph /  9.3km/h 5.8mph /  9.3km/h 81% 0.00in /  0mm 0.00 W/m2
23:35 59.0 °F /  15 °C 53.2 °F /  11.8 °C 29.99in /  1015.5hPa Calm   5.8mph /  9.3km/h 81% 0.00in /  0mm 0.00 W/m2
23:40 59.4 °F /  15.2 °C 53.6 °F /  12 °C 29.99in /  1015.5hPa Calm   5.8mph /  9.3km/h 81% 0.00in /  0mm 0.00 W/m2
23:45 59.9 °F /  15.5 °C 54.1 °F /  12.3 °C 29.99in /  1015.5hPa NE 3.4mph /  5.5km/h 6.9mph /  11.1km/h 81% 0.00in /  0mm 0.00 W/m2
23:50 59.9 °F /  15.5 °C 54.1 °F /  12.3 °C 29.99in /  1015.5hPa Calm   4.6mph /  7.4km/h 81% 0.00in /  0mm 0.00 W/m2
23:55 59.7 °F /  15.4 °C 53.9 °F /  12.2 °C 29.99in /  1015.5hPa NE 1.1mph /  1.8km/h 4.6mph /  7.4km/h 81% 0.00in /  0mm 0.00 W/m2
Juneau County Weather
Compliments of Weather Underground - 4 mb